Overview Statistics Trail Chart Weather Telemetry Raw packets
 

This is the latest recevied weather packets stored in our database for station/object W7BTL. If no packets are shown the sender has not sent any weather packets the latest 10 day(s).

<< 54 55 56 57 58 59 60 >>
Time Temp. Humidity Pressure Rain* Wind** Luminosity Snow
1788293594 31.11° C 36% 1014.4 hPa 0 mm - 984 W/m² -
1788293288 30.56° C 39% 1014.6 hPa 0 mm - 989 W/m² -
1788292984 30.56° C 39% 1014.5 hPa 0 mm - 988 W/m² -
1788292682 30.56° C 42% 1014.6 hPa 0 mm - 994 W/m² -
1788292381 30.56° C 42% 1014.6 hPa 0 mm - 985 W/m² -
1788292077 30.56° C 42% 1014.8 hPa 0 mm - 983 W/m² -
1788291772 30.56° C 43% 1014.7 hPa 0 mm - 989 W/m² -
1788291468 30.56° C 42% 1014.9 hPa 0 mm - 870 W/m² -
1788291166 30° C 43% 1014.9 hPa 0 mm - 988 W/m² -
1788290861 30° C 43% 1014.8 hPa 0 mm - 976 W/m² -
1788290557 30° C 44% 1014.9 hPa 0 mm - 971 W/m² -
1788290253 30° C 44% 1015.2 hPa 0 mm - 972 W/m² -
1788289949 29.44° C 44% 1015.1 hPa 0 mm - 973 W/m² -
1788289644 29.44° C 44% 1015.4 hPa 0 mm - 961 W/m² -
1788289344 28.89° C 46% 1015.2 hPa 0 mm - 955 W/m² -
1788289042 28.89° C 47% 1015.1 hPa 0 mm - 950 W/m² -
1788288741 28.89° C 49% 1015.1 hPa 0 mm - 951 W/m² -
1788288437 28.89° C 48% 1015.2 hPa 0 mm - 936 W/m² -
1788288132 28.89° C 47% 1015.4 hPa 0 mm - 452 W/m² -
1788287828 28.33° C 49% 1015.3 hPa 0 mm - 927 W/m² -
1788287527 28.33° C 49% 1015.5 hPa 0 mm - 459 W/m² -
1788287224 27.78° C 50% 1015.3 hPa 0 mm - 904 W/m² -
1788286923 27.78° C 50% 1015.3 hPa 0 mm - 895 W/m² -
1788286618 27.22° C 53% 1015.5 hPa 0 mm - 881 W/m² -
1788286318 27.22° C 52% 1015.6 hPa 0 mm - 868 W/m² -

* Rain latest hour (hover to see other rain measurements)
** Current wind speed in m/s (hover to see current wind gust speed)